sensor_id;sensor_type;location;lat;lon;timestamp;temperature;humidity
51466;DHT22;37542;50.164;9.086;2022-09-16T00:00:48;13.30;57.90
51466;DHT22;37542;50.164;9.086;2022-09-16T00:04:30;13.20;58.00
51466;DHT22;37542;50.164;9.086;2022-09-16T00:08:11;13.20;58.00
51466;DHT22;37542;50.164;9.086;2022-09-16T00:11:52;13.20;57.90
51466;DHT22;37542;50.164;9.086;2022-09-16T00:15:33;13.20;57.90
51466;DHT22;37542;50.164;9.086;2022-09-16T00:19:14;13.20;58.00
51466;DHT22;37542;50.164;9.086;2022-09-16T00:22:57;13.20;58.20
51466;DHT22;37542;50.164;9.086;2022-09-16T00:26:38;13.10;58.20
51466;DHT22;37542;50.164;9.086;2022-09-16T00:30:19;13.10;58.30
51466;DHT22;37542;50.164;9.086;2022-09-16T00:34:01;13.10;58.30
51466;DHT22;37542;50.164;9.086;2022-09-16T00:37:45;13.00;58.40
51466;DHT22;37542;50.164;9.086;2022-09-16T00:41:28;13.00;58.10
51466;DHT22;37542;50.164;9.086;2022-09-16T00:45:18;13.00;58.20
51466;DHT22;37542;50.164;9.086;2022-09-16T00:49:25;13.00;58.00
51466;DHT22;37542;50.164;9.086;2022-09-16T00:53:16;12.90;57.60
51466;DHT22;37542;50.164;9.086;2022-09-16T00:57:00;12.90;57.70
51466;DHT22;37542;50.164;9.086;2022-09-16T01:00:44;12.90;57.90
51466;DHT22;37542;50.164;9.086;2022-09-16T01:04:28;12.80;57.80
51466;DHT22;37542;50.164;9.086;2022-09-16T01:08:14;12.80;57.90
51466;DHT22;37542;50.164;9.086;2022-09-16T01:11:57;12.80;57.90
51466;DHT22;37542;50.164;9.086;2022-09-16T01:16:05;12.70;58.10
51466;DHT22;37542;50.164;9.086;2022-09-16T01:36:10;12.60;58.30
51466;DHT22;37542;50.164;9.086;2022-09-16T01:40:11;12.60;58.10
51466;DHT22;37542;50.164;9.086;2022-09-16T01:44:14;12.60;58.20
51466;DHT22;37542;50.164;9.086;2022-09-16T01:48:20;12.60;58.20
51466;DHT22;37542;50.164;9.086;2022-09-16T01:56:36;12.50;58.30
51466;DHT22;37542;50.164;9.086;2022-09-16T02:00:25;12.50;58.50
51466;DHT22;37542;50.164;9.086;2022-09-16T02:04:16;12.50;58.10
51466;DHT22;37542;50.164;9.086;2022-09-16T02:08:14;12.40;58.20
51466;DHT22;37542;50.164;9.086;2022-09-16T02:12:03;12.40;58.30
51466;DHT22;37542;50.164;9.086;2022-09-16T02:15:52;12.40;58.30
51466;DHT22;37542;50.164;9.086;2022-09-16T02:19:53;12.40;58.30
51466;DHT22;37542;50.164;9.086;2022-09-16T02:23:42;12.30;58.40
51466;DHT22;37542;50.164;9.086;2022-09-16T02:27:31;12.40;58.40
51466;DHT22;37542;50.164;9.086;2022-09-16T02:31:14;12.30;58.40
51466;DHT22;37542;50.164;9.086;2022-09-16T02:35:03;12.30;58.40
51466;DHT22;37542;50.164;9.086;2022-09-16T02:38:52;12.30;58.40
51466;DHT22;37542;50.164;9.086;2022-09-16T02:42:37;12.30;58.40
51466;DHT22;37542;50.164;9.086;2022-09-16T02:55:19;12.20;58.60
51466;DHT22;37542;50.164;9.086;2022-09-16T02:59:11;12.20;58.40
51466;DHT22;37542;50.164;9.086;2022-09-16T03:02:58;12.20;58.20
51466;DHT22;37542;50.164;9.086;2022-09-16T03:06:48;12.20;58.50
51466;DHT22;37542;50.164;9.086;2022-09-16T03:10:38;12.10;58.40
51466;DHT22;37542;50.164;9.086;2022-09-16T03:18:55;12.00;58.30
51466;DHT22;37542;50.164;9.086;2022-09-16T03:30:52;11.90;58.60
51466;DHT22;37542;50.164;9.086;2022-09-16T03:38:35;11.90;58.40
51466;DHT22;37542;50.164;9.086;2022-09-16T03:42:20;11.80;58.70
51466;DHT22;37542;50.164;9.086;2022-09-16T03:46:01;11.80;58.40
51466;DHT22;37542;50.164;9.086;2022-09-16T03:49:42;11.70;58.40
51466;DHT22;37542;50.164;9.086;2022-09-16T03:53:23;11.70;58.50
51466;DHT22;37542;50.164;9.086;2022-09-16T03:57:04;11.70;58.50
51466;DHT22;37542;50.164;9.086;2022-09-16T04:00:49;11.70;58.40
51466;DHT22;37542;50.164;9.086;2022-09-16T04:04:33;11.60;58.50
51466;DHT22;37542;50.164;9.086;2022-09-16T04:08:14;11.60;58.70
51466;DHT22;37542;50.164;9.086;2022-09-16T04:11:54;11.60;58.50
51466;DHT22;37542;50.164;9.086;2022-09-16T04:15:36;11.60;58.60
51466;DHT22;37542;50.164;9.086;2022-09-16T04:19:18;11.60;58.70
51466;DHT22;37542;50.164;9.086;2022-09-16T04:22:59;11.60;58.70
51466;DHT22;37542;50.164;9.086;2022-09-16T04:26:40;11.60;58.60
51466;DHT22;37542;50.164;9.086;2022-09-16T04:30:22;11.60;58.70
51466;DHT22;37542;50.164;9.086;2022-09-16T04:34:04;11.50;58.60
51466;DHT22;37542;50.164;9.086;2022-09-16T04:37:45;11.60;58.70
51466;DHT22;37542;50.164;9.086;2022-09-16T04:45:23;11.50;58.60
51466;DHT22;37542;50.164;9.086;2022-09-16T04:49:14;11.50;58.60
51466;DHT22;37542;50.164;9.086;2022-09-16T04:52:56;11.50;58.70
51466;DHT22;37542;50.164;9.086;2022-09-16T04:56:37;11.40;58.60
51466;DHT22;37542;50.164;9.086;2022-09-16T05:00:33;11.50;58.60
51466;DHT22;37542;50.164;9.086;2022-09-16T05:30:35;11.20;59.30
51466;DHT22;37542;50.164;9.086;2022-09-16T05:34:21;11.20;59.70
51466;DHT22;37542;50.164;9.086;2022-09-16T05:38:02;11.20;59.50
51466;DHT22;37542;50.164;9.086;2022-09-16T05:56:26;11.10;59.50
51466;DHT22;37542;50.164;9.086;2022-09-16T06:00:09;11.10;59.50
51466;DHT22;37542;50.164;9.086;2022-09-16T06:03:51;11.10;59.70
51466;DHT22;37542;50.164;9.086;2022-09-16T06:12:04;11.10;60.50
51466;DHT22;37542;50.164;9.086;2022-09-16T06:15:49;11.20;60.20
51466;DHT22;37542;50.164;9.086;2022-09-16T06:19:31;11.30;60.10
51466;DHT22;37542;50.164;9.086;2022-09-16T06:23:12;11.30;59.80
51466;DHT22;37542;50.164;9.086;2022-09-16T06:26:53;11.40;59.80
51466;DHT22;37542;50.164;9.086;2022-09-16T06:30:34;11.40;59.80
51466;DHT22;37542;50.164;9.086;2022-09-16T06:34:16;11.50;59.90
51466;DHT22;37542;50.164;9.086;2022-09-16T06:38:00;11.60;59.90
51466;DHT22;37542;50.164;9.086;2022-09-16T06:41:42;11.70;59.80
51466;DHT22;37542;50.164;9.086;2022-09-16T06:45:25;11.80;59.60
51466;DHT22;37542;50.164;9.086;2022-09-16T06:49:24;11.90;59.30
51466;DHT22;37542;50.164;9.086;2022-09-16T06:53:07;12.00;59.10
51466;DHT22;37542;50.164;9.086;2022-09-16T06:56:48;12.10;59.00
51466;DHT22;37542;50.164;9.086;2022-09-16T07:00:32;12.10;59.00
51466;DHT22;37542;50.164;9.086;2022-09-16T07:04:12;12.30;59.00
51466;DHT22;37542;50.164;9.086;2022-09-16T07:17:19;12.60;58.20
51466;DHT22;37542;50.164;9.086;2022-09-16T07:21:08;12.60;58.20
51466;DHT22;37542;50.164;9.086;2022-09-16T07:33:42;12.70;58.20
51466;DHT22;37542;50.164;9.086;2022-09-16T07:37:31;12.80;57.90
51466;DHT22;37542;50.164;9.086;2022-09-16T07:41:22;12.80;57.50
51466;DHT22;37542;50.164;9.086;2022-09-16T07:45:10;12.80;57.70
51466;DHT22;37542;50.164;9.086;2022-09-16T07:54:17;13.00;57.20
51466;DHT22;37542;50.164;9.086;2022-09-16T07:58:19;13.10;57.40
51466;DHT22;37542;50.164;9.086;2022-09-16T08:02:12;13.10;56.30
51466;DHT22;37542;50.164;9.086;2022-09-16T08:06:01;13.10;56.50
51466;DHT22;37542;50.164;9.086;2022-09-16T08:09:43;13.10;56.50
51466;DHT22;37542;50.164;9.086;2022-09-16T08:13:26;13.10;56.80
51466;DHT22;37542;50.164;9.086;2022-09-16T08:17:08;13.10;56.80
51466;DHT22;37542;50.164;9.086;2022-09-16T08:20:49;13.20;57.10
51466;DHT22;37542;50.164;9.086;2022-09-16T08:24:30;13.30;56.90
51466;DHT22;37542;50.164;9.086;2022-09-16T08:28:12;13.40;57.10
51466;DHT22;37542;50.164;9.086;2022-09-16T08:31:54;13.50;57.00
51466;DHT22;37542;50.164;9.086;2022-09-16T08:35:35;13.50;57.40
51466;DHT22;37542;50.164;9.086;2022-09-16T08:39:16;13.50;57.30
51466;DHT22;37542;50.164;9.086;2022-09-16T08:43:20;13.50;57.20
51466;DHT22;37542;50.164;9.086;2022-09-16T08:47:54;13.50;56.30
51466;DHT22;37542;50.164;9.086;2022-09-16T08:51:47;13.50;56.00
51466;DHT22;37542;50.164;9.086;2022-09-16T08:55:43;13.40;55.70
51466;DHT22;37542;50.164;9.086;2022-09-16T08:59:34;13.40;54.30
51466;DHT22;37542;50.164;9.086;2022-09-16T09:12:09;13.10;54.80
51466;DHT22;37542;50.164;9.086;2022-09-16T09:16:07;13.10;54.80
51466;DHT22;37542;50.164;9.086;2022-09-16T09:24:51;13.10;53.90
51466;DHT22;37542;50.164;9.086;2022-09-16T09:51:05;13.50;53.90
51466;DHT22;37542;50.164;9.086;2022-09-16T09:54:50;13.60;54.50
51466;DHT22;37542;50.164;9.086;2022-09-16T09:58:47;13.80;54.70
51466;DHT22;37542;50.164;9.086;2022-09-16T10:02:34;14.00;53.50
51466;DHT22;37542;50.164;9.086;2022-09-16T10:06:33;14.20;53.80
51466;DHT22;37542;50.164;9.086;2022-09-16T10:10:19;14.30;51.00
51466;DHT22;37542;50.164;9.086;2022-09-16T10:18:29;14.40;51.20
51466;DHT22;37542;50.164;9.086;2022-09-16T10:22:25;14.50;51.80
51466;DHT22;37542;50.164;9.086;2022-09-16T10:30:31;14.60;52.50
51466;DHT22;37542;50.164;9.086;2022-09-16T10:34:30;14.60;51.50
51466;DHT22;37542;50.164;9.086;2022-09-16T10:38:20;14.60;52.40
51466;DHT22;37542;50.164;9.086;2022-09-16T10:42:26;14.60;52.70
51466;DHT22;37542;50.164;9.086;2022-09-16T10:46:47;14.70;53.30
51466;DHT22;37542;50.164;9.086;2022-09-16T10:51:04;14.80;53.10
51466;DHT22;37542;50.164;9.086;2022-09-16T10:54:46;15.00;54.20
51466;DHT22;37542;50.164;9.086;2022-09-16T10:58:27;15.20;53.40
51466;DHT22;37542;50.164;9.086;2022-09-16T11:11:29;15.40;50.60
51466;DHT22;37542;50.164;9.086;2022-09-16T11:21:20;15.40;50.70
51466;DHT22;37542;50.164;9.086;2022-09-16T11:30:03;15.50;49.90
51466;DHT22;37542;50.164;9.086;2022-09-16T11:33:58;15.50;49.70
51466;DHT22;37542;50.164;9.086;2022-09-16T11:50:47;15.60;48.80
51466;DHT22;37542;50.164;9.086;2022-09-16T12:04:43;15.70;49.50
51466;DHT22;37542;50.164;9.086;2022-09-16T12:09:01;15.80;50.10
51466;DHT22;37542;50.164;9.086;2022-09-16T12:13:28;16.00;49.10
51466;DHT22;37542;50.164;9.086;2022-09-16T12:17:24;16.20;48.70
51466;DHT22;37542;50.164;9.086;2022-09-16T12:33:27;16.60;48.60
51466;DHT22;37542;50.164;9.086;2022-09-16T13:08:41;15.50;51.50
51466;DHT22;37542;50.164;9.086;2022-09-16T13:12:26;15.50;51.60
51466;DHT22;37542;50.164;9.086;2022-09-16T13:16:08;15.40;52.30
51466;DHT22;37542;50.164;9.086;2022-09-16T13:19:51;15.50;52.40
51466;DHT22;37542;50.164;9.086;2022-09-16T13:23:47;15.50;53.10
51466;DHT22;37542;50.164;9.086;2022-09-16T13:31:46;15.90;53.10
51466;DHT22;37542;50.164;9.086;2022-09-16T13:39:14;16.20;53.00
51466;DHT22;37542;50.164;9.086;2022-09-16T13:46:48;16.50;52.70
51466;DHT22;37542;50.164;9.086;2022-09-16T13:50:29;16.60;52.40
51466;DHT22;37542;50.164;9.086;2022-09-16T13:54:32;16.70;52.50
51466;DHT22;37542;50.164;9.086;2022-09-16T13:58:30;16.80;51.90
51466;DHT22;37542;50.164;9.086;2022-09-16T14:16:26;17.20;48.90
51466;DHT22;37542;50.164;9.086;2022-09-16T14:20:18;17.30;49.10
51466;DHT22;37542;50.164;9.086;2022-09-16T14:24:18;17.30;48.40
51466;DHT22;37542;50.164;9.086;2022-09-16T14:31:57;17.30;47.90
51466;DHT22;37542;50.164;9.086;2022-09-16T14:35:38;17.30;48.60
51466;DHT22;37542;50.164;9.086;2022-09-16T14:39:22;17.20;48.10
51466;DHT22;37542;50.164;9.086;2022-09-16T14:43:06;17.20;47.50
51466;DHT22;37542;50.164;9.086;2022-09-16T14:47:13;17.20;48.00
51466;DHT22;37542;50.164;9.086;2022-09-16T14:51:02;17.10;47.10
51466;DHT22;37542;50.164;9.086;2022-09-16T14:54:50;17.10;47.90
51466;DHT22;37542;50.164;9.086;2022-09-16T14:58:32;17.00;48.10
51466;DHT22;37542;50.164;9.086;2022-09-16T15:02:30;16.90;47.80
51466;DHT22;37542;50.164;9.086;2022-09-16T15:06:54;16.90;47.50
51466;DHT22;37542;50.164;9.086;2022-09-16T15:10:38;16.80;47.50
51466;DHT22;37542;50.164;9.086;2022-09-16T15:14:19;16.70;47.60
51466;DHT22;37542;50.164;9.086;2022-09-16T15:18:26;16.60;48.30
51466;DHT22;37542;50.164;9.086;2022-09-16T15:22:13;16.40;48.20
51466;DHT22;37542;50.164;9.086;2022-09-16T15:25:57;16.30;49.20
51466;DHT22;37542;50.164;9.086;2022-09-16T15:29:54;16.10;48.20
51466;DHT22;37542;50.164;9.086;2022-09-16T15:33:40;16.00;48.40
51466;DHT22;37542;50.164;9.086;2022-09-16T15:37:35;15.80;47.90
51466;DHT22;37542;50.164;9.086;2022-09-16T15:45:17;15.40;48.00
51466;DHT22;37542;50.164;9.086;2022-09-16T15:49:31;15.00;48.40
51466;DHT22;37542;50.164;9.086;2022-09-16T15:53:31;14.70;49.40
51466;DHT22;37542;50.164;9.086;2022-09-16T15:57:22;14.30;50.10
51466;DHT22;37542;50.164;9.086;2022-09-16T16:11:07;13.70;51.30
51466;DHT22;37542;50.164;9.086;2022-09-16T16:20:09;13.40;52.40
51466;DHT22;37542;50.164;9.086;2022-09-16T16:23:59;13.30;52.10
51466;DHT22;37542;50.164;9.086;2022-09-16T16:27:40;13.30;51.50
51466;DHT22;37542;50.164;9.086;2022-09-16T16:36:39;13.10;51.40
51466;DHT22;37542;50.164;9.086;2022-09-16T16:40:19;13.00;51.40
51466;DHT22;37542;50.164;9.086;2022-09-16T16:44:03;12.90;51.40
51466;DHT22;37542;50.164;9.086;2022-09-16T16:47:53;12.70;51.60
51466;DHT22;37542;50.164;9.086;2022-09-16T17:04:38;12.30;52.30
51466;DHT22;37542;50.164;9.086;2022-09-16T17:17:59;12.00;52.80
51466;DHT22;37542;50.164;9.086;2022-09-16T17:21:47;11.90;52.80
51466;DHT22;37542;50.164;9.086;2022-09-16T17:39:09;11.70;54.10
51466;DHT22;37542;50.164;9.086;2022-09-16T17:43:15;11.70;53.90
51466;DHT22;37542;50.164;9.086;2022-09-16T17:47:23;11.60;54.30
51466;DHT22;37542;50.164;9.086;2022-09-16T17:51:04;11.50;53.70
51466;DHT22;37542;50.164;9.086;2022-09-16T17:54:45;11.40;53.70
51466;DHT22;37542;50.164;9.086;2022-09-16T17:58:26;11.30;53.90
51466;DHT22;37542;50.164;9.086;2022-09-16T18:02:09;11.30;54.00
51466;DHT22;37542;50.164;9.086;2022-09-16T18:05:51;11.20;54.20
51466;DHT22;37542;50.164;9.086;2022-09-16T18:09:38;11.10;54.10
51466;DHT22;37542;50.164;9.086;2022-09-16T18:13:46;11.10;54.10
51466;DHT22;37542;50.164;9.086;2022-09-16T18:18:24;11.10;55.30
51466;DHT22;37542;50.164;9.086;2022-09-16T18:22:19;11.00;55.20
51466;DHT22;37542;50.164;9.086;2022-09-16T18:26:08;10.90;55.10
51466;DHT22;37542;50.164;9.086;2022-09-16T18:29:50;10.90;56.30
51466;DHT22;37542;50.164;9.086;2022-09-16T18:33:31;10.90;55.40
51466;DHT22;37542;50.164;9.086;2022-09-16T18:37:12;10.80;55.60
51466;DHT22;37542;50.164;9.086;2022-09-16T18:41:29;10.70;55.80
51466;DHT22;37542;50.164;9.086;2022-09-16T18:45:13;10.60;56.40
51466;DHT22;37542;50.164;9.086;2022-09-16T18:49:04;10.60;55.80
51466;DHT22;37542;50.164;9.086;2022-09-16T18:52:55;10.50;56.40
51466;DHT22;37542;50.164;9.086;2022-09-16T18:56:37;10.50;55.60
51466;DHT22;37542;50.164;9.086;2022-09-16T19:00:21;10.40;55.70
51466;DHT22;37542;50.164;9.086;2022-09-16T19:08:58;10.30;56.30
51466;DHT22;37542;50.164;9.086;2022-09-16T19:12:52;10.20;55.90
51466;DHT22;37542;50.164;9.086;2022-09-16T19:16:58;10.20;55.30
51466;DHT22;37542;50.164;9.086;2022-09-16T19:20:48;10.10;56.00
51466;DHT22;37542;50.164;9.086;2022-09-16T19:24:35;10.00;56.20
51466;DHT22;37542;50.164;9.086;2022-09-16T19:28:18;10.00;55.90
51466;DHT22;37542;50.164;9.086;2022-09-16T19:32:02;9.90;55.80
51466;DHT22;37542;50.164;9.086;2022-09-16T19:35:43;9.90;55.80
51466;DHT22;37542;50.164;9.086;2022-09-16T19:39:24;9.80;56.00
51466;DHT22;37542;50.164;9.086;2022-09-16T19:43:06;9.70;56.10
51466;DHT22;37542;50.164;9.086;2022-09-16T19:46:47;9.70;56.30
51466;DHT22;37542;50.164;9.086;2022-09-16T19:50:28;9.60;56.20
51466;DHT22;37542;50.164;9.086;2022-09-16T19:54:12;9.60;56.50
51466;DHT22;37542;50.164;9.086;2022-09-16T19:58:05;9.50;56.30
51466;DHT22;37542;50.164;9.086;2022-09-16T20:01:46;9.40;56.50
51466;DHT22;37542;50.164;9.086;2022-09-16T20:05:27;9.40;56.50
51466;DHT22;37542;50.164;9.086;2022-09-16T20:09:11;9.40;56.60
51466;DHT22;37542;50.164;9.086;2022-09-16T20:12:52;9.30;56.80
51466;DHT22;37542;50.164;9.086;2022-09-16T20:16:36;9.20;56.70
51466;DHT22;37542;50.164;9.086;2022-09-16T20:20:21;9.20;57.00
51466;DHT22;37542;50.164;9.086;2022-09-16T20:24:03;9.10;56.90
51466;DHT22;37542;50.164;9.086;2022-09-16T20:31:43;9.00;57.30
51466;DHT22;37542;50.164;9.086;2022-09-16T20:35:25;9.00;57.50
51466;DHT22;37542;50.164;9.086;2022-09-16T20:39:07;8.90;57.80
51466;DHT22;37542;50.164;9.086;2022-09-16T20:42:48;8.90;57.80
51466;DHT22;37542;50.164;9.086;2022-09-16T20:46:33;8.80;57.70
51466;DHT22;37542;50.164;9.086;2022-09-16T20:50:15;8.70;58.40
51466;DHT22;37542;50.164;9.086;2022-09-16T20:53:58;8.70;57.90
51466;DHT22;37542;50.164;9.086;2022-09-16T20:57:44;8.60;58.40
51466;DHT22;37542;50.164;9.086;2022-09-16T21:01:30;8.60;58.10
51466;DHT22;37542;50.164;9.086;2022-09-16T21:05:11;8.50;58.60
51466;DHT22;37542;50.164;9.086;2022-09-16T21:08:56;8.50;58.10
51466;DHT22;37542;50.164;9.086;2022-09-16T21:12:39;8.40;58.50
51466;DHT22;37542;50.164;9.086;2022-09-16T21:16:21;8.40;58.20
51466;DHT22;37542;50.164;9.086;2022-09-16T21:24:37;8.20;59.10
51466;DHT22;37542;50.164;9.086;2022-09-16T21:28:18;8.20;58.60
51466;DHT22;37542;50.164;9.086;2022-09-16T21:32:05;8.10;58.70
51466;DHT22;37542;50.164;9.086;2022-09-16T21:35:50;8.10;58.60
51466;DHT22;37542;50.164;9.086;2022-09-16T21:39:31;8.10;58.80
51466;DHT22;37542;50.164;9.086;2022-09-16T21:43:12;8.10;59.00
51466;DHT22;37542;50.164;9.086;2022-09-16T21:46:53;8.10;58.90
51466;DHT22;37542;50.164;9.086;2022-09-16T21:50:34;8.10;58.90
51466;DHT22;37542;50.164;9.086;2022-09-16T21:54:15;8.10;59.00
51466;DHT22;37542;50.164;9.086;2022-09-16T21:57:57;8.10;59.00
51466;DHT22;37542;50.164;9.086;2022-09-16T22:01:43;8.00;59.10
51466;DHT22;37542;50.164;9.086;2022-09-16T22:05:34;8.00;60.00
51466;DHT22;37542;50.164;9.086;2022-09-16T22:09:20;8.00;59.40
51466;DHT22;37542;50.164;9.086;2022-09-16T22:13:04;8.00;59.30
51466;DHT22;37542;50.164;9.086;2022-09-16T22:16:47;8.00;59.40
51466;DHT22;37542;50.164;9.086;2022-09-16T22:20:35;8.00;59.40
51466;DHT22;37542;50.164;9.086;2022-09-16T22:24:31;8.00;59.60
51466;DHT22;37542;50.164;9.086;2022-09-16T22:29:01;8.00;60.00
51466;DHT22;37542;50.164;9.086;2022-09-16T22:32:43;8.00;60.20
51466;DHT22;37542;50.164;9.086;2022-09-16T22:36:28;8.00;59.70
51466;DHT22;37542;50.164;9.086;2022-09-16T22:40:10;8.10;59.90
51466;DHT22;37542;50.164;9.086;2022-09-16T22:43:52;8.10;59.60
51466;DHT22;37542;50.164;9.086;2022-09-16T22:47:33;8.10;59.70
51466;DHT22;37542;50.164;9.086;2022-09-16T22:51:16;8.10;59.50
51466;DHT22;37542;50.164;9.086;2022-09-16T22:54:57;8.00;59.60
51466;DHT22;37542;50.164;9.086;2022-09-16T22:58:39;8.00;59.60
51466;DHT22;37542;50.164;9.086;2022-09-16T23:02:20;8.00;59.60
51466;DHT22;37542;50.164;9.086;2022-09-16T23:06:03;8.00;59.70
51466;DHT22;37542;50.164;9.086;2022-09-16T23:09:45;7.90;59.80
51466;DHT22;37542;50.164;9.086;2022-09-16T23:13:26;7.90;59.70
51466;DHT22;37542;50.164;9.086;2022-09-16T23:17:07;7.90;59.70
51466;DHT22;37542;50.164;9.086;2022-09-16T23:21:03;7.90;59.90
51466;DHT22;37542;50.164;9.086;2022-09-16T23:24:45;7.90;60.70
51466;DHT22;37542;50.164;9.086;2022-09-16T23:28:26;7.80;59.80
51466;DHT22;37542;50.164;9.086;2022-09-16T23:32:07;7.80;59.80
51466;DHT22;37542;50.164;9.086;2022-09-16T23:35:51;7.80;59.90
51466;DHT22;37542;50.164;9.086;2022-09-16T23:39:31;7.80;60.30
51466;DHT22;37542;50.164;9.086;2022-09-16T23:43:12;7.60;59.90
51466;DHT22;37542;50.164;9.086;2022-09-16T23:46:53;7.70;60.10
51466;DHT22;37542;50.164;9.086;2022-09-16T23:50:33;7.70;60.10
51466;DHT22;37542;50.164;9.086;2022-09-16T23:54:14;7.70;60.30
51466;DHT22;37542;50.164;9.086;2022-09-16T23:57:55;7.70;60.30
